Time;durP1;ratioP1;P1;durP2;ratioP2;P2;SDS_P1;SDS_P2;PMS_P1;PMS_P2;Temp;Humidity;BMP_temperature;BMP_pressure;BME280_temperature;BME280_humidity;BME280_pressure;Samples;Min_cycle;Max_cycle;Signal;HPM_P1;HPM_P2
2024/03/24 00:00:27;;;;;;;3.63;2.00;;;;;;;;;;5053611;28;20048;-67
2024/03/24 00:02:52;;;;;;;5.90;2.63;;;;;;;;;;5072387;28;20032;-69
2024/03/24 00:05:19;;;;;;;7.00;2.17;;;;;;;;;;5071687;28;20056;-68
2024/03/24 00:07:45;;;;;;;3.43;1.80;;;;;;;;;;5054408;28;20102;-69
2024/03/24 00:10:12;;;;;;;2.33;1.63;;;;;;;;;;5037726;28;20032;-69
2024/03/24 00:12:38;;;;;;;7.00;2.33;;;;;;;;;;5054483;28;20063;-68
2024/03/24 00:15:05;;;;;;;4.53;2.43;;;;;;;;;;5054364;28;20056;-68
2024/03/24 00:17:30;;;;;;;3.30;2.20;;;;;;;;;;5037531;28;20473;-67
2024/03/24 00:19:56;;;;;;;4.90;2.30;;;;;;;;;;5054201;28;20103;-68
2024/03/24 00:22:22;;;;;;;4.73;2.17;;;;;;;;;;5054279;28;20123;-68
2024/03/24 00:24:48;;;;;;;3.70;2.30;;;;;;;;;;5072393;28;20443;-67
2024/03/24 00:27:15;;;;;;;4.70;2.37;;;;;;;;;;5071926;28;20028;-69
2024/03/24 00:29:41;;;;;;;6.27;2.73;;;;;;;;;;5054217;28;20043;-69
2024/03/24 00:32:07;;;;;;;8.33;2.60;;;;;;;;;;5053758;28;20033;-69
2024/03/24 00:34:32;;;;;;;5.10;2.53;;;;;;;;;;5054062;28;20131;-69
2024/03/24 00:36:58;;;;;;;6.73;3.37;;;;;;;;;;5053654;28;20036;-70
2024/03/24 00:39:24;;;;;;;6.33;2.73;;;;;;;;;;5071329;28;20081;-70
2024/03/24 00:41:49;;;;;;;5.07;3.00;;;;;;;;;;5071679;28;20404;-68
2024/03/24 00:44:15;;;;;;;6.00;3.80;;;;;;;;;;5071552;28;20032;-67
2024/03/24 00:46:41;;;;;;;5.87;2.57;;;;;;;;;;5054264;28;20345;-68
2024/03/24 00:49:06;;;;;;;5.73;2.97;;;;;;;;;;5053957;28;20032;-72
2024/03/24 00:51:32;;;;;;;4.23;2.93;;;;;;;;;;5053818;28;20055;-74
2024/03/24 00:53:58;;;;;;;6.93;3.53;;;;;;;;;;5054584;28;20032;-73
2024/03/24 00:56:24;;;;;;;5.27;2.60;;;;;;;;;;5072865;28;20035;-72
2024/03/24 00:58:50;;;;;;;5.10;3.07;;;;;;;;;;5072519;28;20040;-74
2024/03/24 01:01:15;;;;;;;5.67;3.13;;;;;;;;;;5072652;28;20035;-74
2024/03/24 01:03:41;;;;;;;6.93;3.00;;;;;;;;;;5054834;28;20446;-73
2024/03/24 01:06:08;;;;;;;5.20;2.73;;;;;;;;;;5054605;28;20039;-72
2024/03/24 01:08:34;;;;;;;7.47;2.93;;;;;;;;;;5074140;28;20100;-74
2024/03/24 01:11:04;;;;;;;4.67;2.90;;;;;;;;;;5055154;28;20376;-69
2024/03/24 01:13:30;;;;;;;4.87;3.10;;;;;;;;;;5054978;28;20044;-73
2024/03/24 01:15:56;;;;;;;4.13;2.50;;;;;;;;;;5054746;28;20024;-74
2024/03/24 01:18:23;;;;;;;5.13;2.53;;;;;;;;;;5055901;28;20025;-72
2024/03/24 01:20:49;;;;;;;7.10;2.80;;;;;;;;;;5055804;28;20031;-76
2024/03/24 01:23:14;;;;;;;4.77;2.63;;;;;;;;;;5054748;28;20169;-73
2024/03/24 01:25:40;;;;;;;4.13;2.23;;;;;;;;;;5072530;28;20029;-74
2024/03/24 01:28:07;;;;;;;2.87;1.90;;;;;;;;;;5073033;28;20024;-73
2024/03/24 01:30:32;;;;;;;7.87;2.87;;;;;;;;;;5073212;28;20500;-72
2024/03/24 01:32:58;;;;;;;4.43;2.13;;;;;;;;;;5057254;28;20039;-72
2024/03/24 01:35:24;;;;;;;6.10;2.87;;;;;;;;;;5055477;28;20542;-74
2024/03/24 01:37:50;;;;;;;4.00;2.30;;;;;;;;;;5073389;28;20494;-73
2024/03/24 01:40:15;;;;;;;7.10;2.73;;;;;;;;;;5055774;28;20052;-74
2024/03/24 01:42:41;;;;;;;3.73;2.00;;;;;;;;;;5077534;28;20048;-71
2024/03/24 01:45:08;;;;;;;2.67;2.07;;;;;;;;;;5081400;28;20036;-73
2024/03/24 01:47:35;;;;;;;3.80;2.47;;;;;;;;;;5080607;28;20034;-71
2024/03/24 01:50:04;;;;;;;5.13;2.50;;;;;;;;;;5080533;28;20595;-73
2024/03/24 01:52:29;;;;;;;5.73;2.43;;;;;;;;;;5045283;28;20495;-75
2024/03/24 01:54:56;;;;;;;4.20;2.30;;;;;;;;;;5057472;28;20067;-76
2024/03/24 01:57:22;;;;;;;6.30;2.47;;;;;;;;;;5054179;28;20029;-74
2024/03/24 01:59:50;;;;;;;5.60;2.20;;;;;;;;;;5053449;28;20024;-75
2024/03/24 02:02:16;;;;;;;4.07;2.20;;;;;;;;;;5052697;28;20024;-74
2024/03/24 02:04:48;;;;;;;3.37;1.87;;;;;;;;;;5055233;28;20024;-73
2024/03/24 02:07:14;;;;;;;3.47;1.90;;;;;;;;;;5055082;28;20735;-71
2024/03/24 02:09:42;;;;;;;2.33;1.70;;;;;;;;;;5038581;28;20098;-74
2024/03/24 02:12:08;;;;;;;3.83;2.23;;;;;;;;;;5055293;28;20029;-72
2024/03/24 02:14:34;;;;;;;2.30;1.80;;;;;;;;;;5055764;28;20449;-74
2024/03/24 02:17:00;;;;;;;2.20;1.57;;;;;;;;;;5074152;28;20024;-72
2024/03/24 02:19:26;;;;;;;3.97;1.87;;;;;;;;;;5055103;28;20056;-74
2024/03/24 02:21:52;;;;;;;2.33;1.80;;;;;;;;;;5058819;28;20059;-72
2024/03/24 02:24:18;;;;;;;3.53;2.30;;;;;;;;;;5081729;28;20484;-70
2024/03/24 02:26:44;;;;;;;3.03;2.03;;;;;;;;;;5063013;28;20024;-73
2024/03/24 02:29:12;;;;;;;2.07;1.47;;;;;;;;;;5079612;28;20059;-74
2024/03/24 02:31:38;;;;;;;1.90;1.70;;;;;;;;;;5079681;28;20024;-72
2024/03/24 02:34:04;;;;;;;2.20;1.50;;;;;;;;;;5063391;28;20024;-68
2024/03/24 02:36:30;;;;;;;2.03;1.63;;;;;;;;;;5062347;28;20497;-72
2024/03/24 02:38:56;;;;;;;2.27;1.60;;;;;;;;;;5063345;28;20032;-73
2024/03/24 02:41:24;;;;;;;4.60;1.73;;;;;;;;;;5059325;28;20226;-74
2024/03/24 02:43:50;;;;;;;1.90;1.50;;;;;;;;;;5059263;28;20052;-74
2024/03/24 02:46:15;;;;;;;2.93;1.30;;;;;;;;;;5060737;28;20060;-73
2024/03/24 02:48:41;;;;;;;1.83;1.40;;;;;;;;;;5061867;28;20082;-73
2024/03/24 02:51:07;;;;;;;1.80;1.67;;;;;;;;;;5079896;28;20051;-73
2024/03/24 02:53:34;;;;;;;5.17;1.30;;;;;;;;;;5060850;28;20032;-73
2024/03/24 02:56:00;;;;;;;3.60;1.53;;;;;;;;;;5061431;28;20031;-73
2024/03/24 02:58:26;;;;;;;3.20;1.93;;;;;;;;;;5061044;28;20028;-73
2024/03/24 03:00:52;;;;;;;3.20;2.10;;;;;;;;;;5078834;28;20024;-73
2024/03/24 03:03:18;;;;;;;6.00;1.83;;;;;;;;;;5060600;28;20032;-73
2024/03/24 03:05:45;;;;;;;2.70;1.40;;;;;;;;;;5061713;28;20032;-73
2024/03/24 03:08:12;;;;;;;1.57;1.47;;;;;;;;;;5062060;28;20032;-72
2024/03/24 03:10:38;;;;;;;1.40;1.30;;;;;;;;;;5062444;28;20024;-72
2024/03/24 03:13:04;;;;;;;1.50;1.40;;;;;;;;;;5065785;28;20092;-72
2024/03/24 03:15:31;;;;;;;4.90;1.63;;;;;;;;;;5082416;28;20052;-73
2024/03/24 03:17:56;;;;;;;1.83;1.40;;;;;;;;;;5046048;28;20039;-74
2024/03/24 03:20:22;;;;;;;1.50;1.40;;;;;;;;;;5078837;28;20021;-72
2024/03/24 03:22:48;;;;;;;3.37;1.80;;;;;;;;;;5063314;28;20404;-72
2024/03/24 03:25:14;;;;;;;4.90;1.97;;;;;;;;;;5059975;28;20406;-73
2024/03/24 03:27:40;;;;;;;4.13;2.37;;;;;;;;;;5056952;28;20024;-72
2024/03/24 03:30:06;;;;;;;1.23;1.20;;;;;;;;;;5057055;28;20492;-72
2024/03/24 03:32:35;;;;;;;4.03;1.87;;;;;;;;;;5055631;28;20048;-73
2024/03/24 03:35:03;;;;;;;2.77;1.70;;;;;;;;;;5055529;28;20032;-75
2024/03/24 03:37:28;;;;;;;1.53;1.33;;;;;;;;;;5055609;28;20036;-73
2024/03/24 03:39:55;;;;;;;1.70;1.50;;;;;;;;;;5073658;28;20032;-73
2024/03/24 03:42:21;;;;;;;6.27;1.70;;;;;;;;;;5071656;28;20491;-74
2024/03/24 03:44:49;;;;;;;2.10;1.67;;;;;;;;;;5054722;28;20082;-74
2024/03/24 03:47:15;;;;;;;3.10;1.80;;;;;;;;;;5072823;28;20032;-73
2024/03/24 03:49:42;;;;;;;3.00;1.93;;;;;;;;;;5054748;28;20021;-73
2024/03/24 03:52:09;;;;;;;4.67;1.70;;;;;;;;;;5055151;28;20106;-73
2024/03/24 03:54:36;;;;;;;2.33;1.97;;;;;;;;;;5054888;28;20750;-72
2024/03/24 03:57:03;;;;;;;1.80;1.47;;;;;;;;;;5054665;28;20033;-74
2024/03/24 03:59:29;;;;;;;2.27;1.80;;;;;;;;;;5054320;28;20525;-74
2024/03/24 04:01:55;;;;;;;1.73;1.53;;;;;;;;;;5054667;28;20020;-73
2024/03/24 04:04:21;;;;;;;4.60;2.20;;;;;;;;;;5054405;28;20024;-73
2024/03/24 04:06:46;;;;;;;2.37;2.00;;;;;;;;;;5054609;28;20040;-72
2024/03/24 04:09:16;;;;;;;4.67;2.20;;;;;;;;;;5072634;28;20056;-73
2024/03/24 04:11:43;;;;;;;1.87;1.57;;;;;;;;;;5054158;28;20079;-72
2024/03/24 04:14:09;;;;;;;3.10;1.80;;;;;;;;;;5054367;28;20028;-73
2024/03/24 04:16:34;;;;;;;1.87;1.77;;;;;;;;;;5038372;28;20040;-74
2024/03/24 04:19:00;;;;;;;4.43;1.93;;;;;;;;;;5054829;28;20469;-74
2024/03/24 04:21:28;;;;;;;3.30;2.53;;;;;;;;;;5072305;28;20129;-73
2024/03/24 04:23:54;;;;;;;2.40;2.20;;;;;;;;;;5054999;28;20040;-72
2024/03/24 04:26:19;;;;;;;4.90;2.23;;;;;;;;;;5054221;28;20035;-73
2024/03/24 04:28:45;;;;;;;4.23;2.47;;;;;;;;;;5053807;28;20034;-72
2024/03/24 04:31:12;;;;;;;3.03;2.07;;;;;;;;;;5072447;28;20032;-72
2024/03/24 04:33:38;;;;;;;2.83;2.00;;;;;;;;;;5054635;28;20102;-72
2024/03/24 04:36:06;;;;;;;4.77;2.70;;;;;;;;;;5054174;28;20024;-74
2024/03/24 04:38:32;;;;;;;2.60;2.17;;;;;;;;;;5037204;28;20024;-70
2024/03/24 04:40:57;;;;;;;5.90;2.67;;;;;;;;;;5053761;28;20359;-75
2024/03/24 04:43:24;;;;;;;2.87;2.43;;;;;;;;;;5071727;28;20034;-73
2024/03/24 04:45:52;;;;;;;3.33;2.50;;;;;;;;;;5072161;28;20031;-74
2024/03/24 04:48:19;;;;;;;4.17;2.43;;;;;;;;;;5053651;28;20115;-72
2024/03/24 04:50:45;;;;;;;4.10;2.23;;;;;;;;;;5053453;28;20537;-72
2024/03/24 04:53:11;;;;;;;3.20;1.90;;;;;;;;;;5071425;28;20032;-73
2024/03/24 04:55:36;;;;;;;2.37;1.93;;;;;;;;;;5034562;28;20036;-73
2024/03/24 04:58:03;;;;;;;2.63;2.20;;;;;;;;;;5051685;28;20078;-73
2024/03/24 05:00:28;;;;;;;3.60;1.90;;;;;;;;;;5050920;28;20025;-73
2024/03/24 05:02:54;;;;;;;4.47;2.70;;;;;;;;;;5033144;28;20036;-72
2024/03/24 05:05:20;;;;;;;3.63;2.07;;;;;;;;;;5032688;28;20028;-74
2024/03/24 05:07:49;;;;;;;4.60;2.60;;;;;;;;;;5033137;28;20032;-72
2024/03/24 05:10:17;;;;;;;4.57;2.37;;;;;;;;;;5032845;28;20428;-72
2024/03/24 05:12:43;;;;;;;5.60;2.30;;;;;;;;;;5033430;28;20603;-72
2024/03/24 05:15:10;;;;;;;2.97;2.00;;;;;;;;;;5032962;28;20112;-74
2024/03/24 05:17:39;;;;;;;4.53;2.30;;;;;;;;;;5032699;28;20060;-72
2024/03/24 05:20:09;;;;;;;3.07;2.20;;;;;;;;;;5050958;28;20088;-74
2024/03/24 05:22:36;;;;;;;3.90;2.23;;;;;;;;;;5051417;28;20104;-74
2024/03/24 05:25:04;;;;;;;2.97;2.00;;;;;;;;;;5033545;28;20584;-72
2024/03/24 05:27:30;;;;;;;3.73;1.90;;;;;;;;;;5032772;28;20032;-74
2024/03/24 05:29:56;;;;;;;3.67;1.87;;;;;;;;;;5032551;28;20017;-74
2024/03/24 05:32:22;;;;;;;4.53;1.90;;;;;;;;;;5033012;28;20059;-75
2024/03/24 05:34:47;;;;;;;4.00;2.13;;;;;;;;;;5032685;28;20094;-72
2024/03/24 05:37:13;;;;;;;2.63;2.17;;;;;;;;;;5032805;28;20098;-74
2024/03/24 05:39:40;;;;;;;4.17;2.00;;;;;;;;;;5015746;28;20035;-72
2024/03/24 05:42:06;;;;;;;2.87;2.17;;;;;;;;;;5032498;28;20115;-74
2024/03/24 05:44:32;;;;;;;5.23;2.40;;;;;;;;;;5015749;28;20120;-73
2024/03/24 05:46:58;;;;;;;3.80;2.20;;;;;;;;;;5032298;28;20029;-74
2024/03/24 05:49:24;;;;;;;5.60;2.87;;;;;;;;;;5032018;28;20032;-72
2024/03/24 05:51:52;;;;;;;2.63;1.93;;;;;;;;;;5050147;28;20103;-73
2024/03/24 05:54:17;;;;;;;9.70;2.80;;;;;;;;;;5032045;28;20136;-74
2024/03/24 05:56:43;;;;;;;2.87;2.27;;;;;;;;;;5031991;28;20452;-75
2024/03/24 05:59:09;;;;;;;3.07;2.53;;;;;;;;;;5032429;28;20036;-74
2024/03/24 06:01:34;;;;;;;3.83;2.30;;;;;;;;;;5032255;28;20140;-74
2024/03/24 06:04:02;;;;;;;3.40;1.73;;;;;;;;;;5032330;28;20481;-74
2024/03/24 06:06:28;;;;;;;4.47;2.37;;;;;;;;;;5015447;28;20036;-73
2024/03/24 06:08:53;;;;;;;4.63;2.90;;;;;;;;;;5032486;28;20393;-72
2024/03/24 06:11:19;;;;;;;2.43;1.73;;;;;;;;;;5032382;28;20021;-73
2024/03/24 06:13:45;;;;;;;2.67;1.90;;;;;;;;;;5050761;28;20021;-75
2024/03/24 06:16:11;;;;;;;3.30;1.70;;;;;;;;;;5032242;28;20029;-73
2024/03/24 06:18:36;;;;;;;6.30;2.57;;;;;;;;;;5050374;28;20040;-72
2024/03/24 06:21:02;;;;;;;4.67;2.43;;;;;;;;;;5032290;28;20029;-73
2024/03/24 06:23:28;;;;;;;2.67;1.87;;;;;;;;;;5049122;28;20072;-73
2024/03/24 06:25:54;;;;;;;4.73;2.00;;;;;;;;;;5032256;28;20111;-75
2024/03/24 06:28:20;;;;;;;5.67;2.17;;;;;;;;;;5031676;28;20083;-74
2024/03/24 06:30:45;;;;;;;3.53;2.20;;;;;;;;;;5032980;28;20032;-73
2024/03/24 06:33:11;;;;;;;3.10;2.03;;;;;;;;;;5034350;28;20032;-73
2024/03/24 06:35:39;;;;;;;3.47;1.73;;;;;;;;;;5053379;28;20041;-71
2024/03/24 06:38:05;;;;;;;4.60;2.00;;;;;;;;;;5026150;28;20032;-73
2024/03/24 06:40:31;;;;;;;4.10;1.80;;;;;;;;;;5025132;28;20033;-68
2024/03/24 06:43:00;;;;;;;3.63;1.80;;;;;;;;;;5033442;28;20032;-69
2024/03/24 06:45:30;;;;;;;2.70;1.77;;;;;;;;;;5049697;28;20021;-69
2024/03/24 06:47:56;;;;;;;1.70;1.40;;;;;;;;;;5032130;28;20033;-69
2024/03/24 06:50:22;;;;;;;5.70;1.80;;;;;;;;;;5032122;28;20021;-69
2024/03/24 06:52:50;;;;;;;2.50;1.63;;;;;;;;;;5032566;28;20123;-70
2024/03/24 06:55:15;;;;;;;2.77;1.50;;;;;;;;;;5050421;28;20027;-69
2024/03/24 06:57:41;;;;;;;3.90;1.73;;;;;;;;;;5032247;28;20055;-68
2024/03/24 07:00:07;;;;;;;5.37;1.97;;;;;;;;;;5032233;28;20076;-69
2024/03/24 07:02:34;;;;;;;3.33;2.00;;;;;;;;;;5031245;28;20029;-69
2024/03/24 07:05:00;;;;;;;2.30;1.60;;;;;;;;;;5031197;28;20025;-72
2024/03/24 07:07:25;;;;;;;4.33;1.40;;;;;;;;;;5030627;28;20095;-69
2024/03/24 07:09:51;;;;;;;2.33;1.80;;;;;;;;;;5051117;28;20083;-70
2024/03/24 07:12:20;;;;;;;1.63;1.37;;;;;;;;;;5035558;28;20048;-68
2024/03/24 07:14:45;;;;;;;5.50;2.87;;;;;;;;;;5053593;28;20028;-70
2024/03/24 07:17:11;;;;;;;2.47;2.07;;;;;;;;;;5053095;28;20031;-70
2024/03/24 07:19:38;;;;;;;2.53;1.73;;;;;;;;;;5053054;28;20017;-69
2024/03/24 07:22:03;;;;;;;3.07;1.57;;;;;;;;;;5035318;28;20029;-70
2024/03/24 07:24:29;;;;;;;2.10;1.67;;;;;;;;;;5053314;28;20044;-70
2024/03/24 07:26:54;;;;;;;3.50;1.50;;;;;;;;;;5035075;28;20115;-67
2024/03/24 07:29:20;;;;;;;3.13;1.50;;;;;;;;;;5034901;28;20064;-71
2024/03/24 07:31:46;;;;;;;26.33;11.20;;;;;;;;;;5052622;28;20109;-69
2024/03/24 07:34:11;;;;;;;6.13;2.03;;;;;;;;;;5034492;28;20111;-68
2024/03/24 07:36:38;;;;;;;1.13;0.97;;;;;;;;;;5034125;28;20024;-68
2024/03/24 07:39:04;;;;;;;2.37;1.63;;;;;;;;;;5034632;28;20053;-69
2024/03/24 07:41:29;;;;;;;2.57;1.30;;;;;;;;;;5052347;28;20489;-69
2024/03/24 07:43:55;;;;;;;2.88;1.75;;;;;;;;;;5052526;28;20025;-70
2024/03/24 07:46:22;;;;;;;3.40;2.00;;;;;;;;;;5034350;28;20480;-68
2024/03/24 07:48:47;;;;;;;3.90;1.60;;;;;;;;;;5052322;28;20032;-69
2024/03/24 07:51:13;;;;;;;5.78;1.60;;;;;;;;;;5033917;28;20025;-70
2024/03/24 07:53:38;;;;;;;4.23;1.50;;;;;;;;;;5033857;28;20504;-68
2024/03/24 07:56:07;;;;;;;7.93;1.88;;;;;;;;;;5033904;28;20029;-69
2024/03/24 07:58:33;;;;;;;1.87;1.40;;;;;;;;;;5034225;28;20025;-68
2024/03/24 08:00:58;;;;;;;2.70;1.50;;;;;;;;;;5034298;28;20024;-69
2024/03/24 08:03:24;;;;;;;4.57;1.70;;;;;;;;;;5051864;28;20025;-69
2024/03/24 08:05:51;;;;;;;3.83;1.48;;;;;;;;;;5033778;28;20036;-68
2024/03/24 08:08:16;;;;;;;2.33;1.30;;;;;;;;;;5017281;28;20039;-70
2024/03/24 08:10:42;;;;;;;4.78;1.50;;;;;;;;;;5051877;28;20025;-68
2024/03/24 08:13:08;;;;;;;2.28;1.65;;;;;;;;;;5033804;28;20385;-69
2024/03/24 08:15:33;;;;;;;1.88;1.65;;;;;;;;;;5051821;28;20133;-69
2024/03/24 08:17:59;;;;;;;1.75;1.52;;;;;;;;;;5051746;28;20473;-69
2024/03/24 08:20:24;;;;;;;2.25;1.60;;;;;;;;;;5051444;28;20031;-69
2024/03/24 08:22:54;;;;;;;6.20;1.63;;;;;;;;;;5033891;28;20086;-68
2024/03/24 08:25:20;;;;;;;2.58;1.50;;;;;;;;;;5017560;28;20029;-69
2024/03/24 08:27:45;;;;;;;4.35;1.60;;;;;;;;;;5033784;28;20116;-69
2024/03/24 08:30:13;;;;;;;4.32;1.90;;;;;;;;;;5033887;28;20384;-69
2024/03/24 08:32:39;;;;;;;3.22;1.80;;;;;;;;;;5051642;28;20071;-69
2024/03/24 08:35:05;;;;;;;2.10;1.50;;;;;;;;;;5033942;28;20021;-68
2024/03/24 08:37:31;;;;;;;5.13;1.80;;;;;;;;;;5051907;28;20120;-70
2024/03/24 08:39:57;;;;;;;1.63;1.20;;;;;;;;;;5033580;28;20044;-71
2024/03/24 08:42:23;;;;;;;1.85;1.17;;;;;;;;;;5033178;28;20052;-70
2024/03/24 08:44:49;;;;;;;1.85;1.13;;;;;;;;;;5051131;28;20480;-69
2024/03/24 08:47:14;;;;;;;4.65;1.30;;;;;;;;;;5051097;28;20043;-69
2024/03/24 08:49:40;;;;;;;7.22;1.58;;;;;;;;;;5051154;28;20461;-70
2024/03/24 08:52:06;;;;;;;2.25;1.30;;;;;;;;;;5033150;28;20354;-70
2024/03/24 08:54:31;;;;;;;4.35;1.20;;;;;;;;;;5032882;28;20037;-70
2024/03/24 08:56:57;;;;;;;2.13;1.38;;;;;;;;;;5033185;28;20668;-70
2024/03/24 08:59:22;;;;;;;1.70;1.20;;;;;;;;;;5033464;28;20055;-70
2024/03/24 09:01:48;;;;;;;7.65;1.65;;;;;;;;;;5033293;28;20028;-68
2024/03/24 09:04:14;;;;;;;1.60;1.20;;;;;;;;;;5034084;28;20028;-69
2024/03/24 09:06:40;;;;;;;2.17;1.00;;;;;;;;;;5051457;28;20551;-69
2024/03/24 09:09:06;;;;;;;1.23;1.00;;;;;;;;;;5033866;28;20039;-68
2024/03/24 09:11:31;;;;;;;1.17;0.98;;;;;;;;;;5033425;28;20055;-70
2024/03/24 09:13:57;;;;;;;3.08;1.25;;;;;;;;;;5033835;28;20036;-70
2024/03/24 09:16:23;;;;;;;1.83;1.10;;;;;;;;;;5034687;28;20056;-69
2024/03/24 09:18:48;;;;;;;2.33;0.93;;;;;;;;;;5034087;28;20086;-68
2024/03/24 09:21:14;;;;;;;1.50;1.05;;;;;;;;;;5034795;28;20420;-69
2024/03/24 09:23:39;;;;;;;2.30;1.00;;;;;;;;;;5033994;28;20334;-69
2024/03/24 09:26:06;;;;;;;1.92;1.48;;;;;;;;;;5033119;28;20025;-68
2024/03/24 09:28:33;;;;;;;1.27;1.17;;;;;;;;;;5016963;28;20029;-69
2024/03/24 09:31:01;;;;;;;1.52;1.42;;;;;;;;;;5033360;28;20448;-72
2024/03/24 09:33:28;;;;;;;2.13;1.30;;;;;;;;;;5032031;28;20023;-71
2024/03/24 09:35:53;;;;;;;2.05;1.27;;;;;;;;;;5050489;28;20057;-71
2024/03/24 09:38:19;;;;;;;3.50;1.50;;;;;;;;;;5031871;28;20484;-68
2024/03/24 09:40:47;;;;;;;2.08;1.20;;;;;;;;;;5031976;28;20033;-69
2024/03/24 09:43:15;;;;;;;1.02;0.93;;;;;;;;;;5032159;28;20032;-68
2024/03/24 09:45:41;;;;;;;1.08;0.70;;;;;;;;;;5049996;28;20365;-69
2024/03/24 09:48:13;;;;;;;2.45;1.00;;;;;;;;;;5032220;28;20027;-71
2024/03/24 09:50:40;;;;;;;0.98;0.80;;;;;;;;;;5015580;28;20051;-70
2024/03/24 09:53:08;;;;;;;2.05;1.15;;;;;;;;;;5031996;28;20115;-71
2024/03/24 09:55:35;;;;;;;1.08;0.98;;;;;;;;;;5050280;28;20044;-70
2024/03/24 09:58:01;;;;;;;1.60;0.90;;;;;;;;;;5032182;28;20033;-70
2024/03/24 10:00:26;;;;;;;1.15;0.90;;;;;;;;;;5032309;28;20075;-68
2024/03/24 10:02:54;;;;;;;1.25;1.15;;;;;;;;;;5032273;28;20032;-69
2024/03/24 10:05:20;;;;;;;1.52;1.13;;;;;;;;;;5016020;28;20044;-71
2024/03/24 10:07:46;;;;;;;1.10;1.00;;;;;;;;;;5031637;28;20025;-67
2024/03/24 10:10:13;;;;;;;1.98;1.00;;;;;;;;;;5050079;28;20443;-69
2024/03/24 10:12:52;;;;;;;1.35;1.05;;;;;;;;;;5031866;28;20017;-69
2024/03/24 10:15:29;;;;;;;0.90;0.68;;;;;;;;;;5032044;28;20029;-70
2024/03/24 10:18:08;;;;;;;2.22;0.80;;;;;;;;;;5032041;28;20032;-70
2024/03/24 10:20:37;;;;;;;3.03;0.70;;;;;;;;;;5031950;28;20017;-70
2024/03/24 10:23:03;;;;;;;1.02;0.80;;;;;;;;;;5031767;28;20032;-69
2024/03/24 10:25:30;;;;;;;1.00;0.82;;;;;;;;;;5031999;28;20048;-72
2024/03/24 10:27:59;;;;;;;0.95;0.90;;;;;;;;;;5032037;28;20557;-70
2024/03/24 10:30:25;;;;;;;2.55;0.90;;;;;;;;;;5015615;28;20095;-72
2024/03/24 10:32:51;;;;;;;1.33;0.80;;;;;;;;;;5031919;28;20055;-69
2024/03/24 10:35:18;;;;;;;2.35;0.60;;;;;;;;;;5031889;28;20050;-70
2024/03/24 10:37:44;;;;;;;3.65;0.70;;;;;;;;;;5031975;28;20035;-69
2024/03/24 10:40:14;;;;;;;3.00;0.90;;;;;;;;;;5049891;28;20040;-70
2024/03/24 10:42:47;;;;;;;1.02;0.50;;;;;;;;;;5015430;28;20464;-69
2024/03/24 10:45:14;;;;;;;1.25;0.73;;;;;;;;;;5054428;28;20031;-68
2024/03/24 10:47:41;;;;;;;1.00;0.70;;;;;;;;;;5037183;28;20091;-69
2024/03/24 10:50:13;;;;;;;1.38;1.05;;;;;;;;;;5037551;28;20036;-69
2024/03/24 10:52:42;;;;;;;2.42;0.63;;;;;;;;;;5037380;28;20021;-69
2024/03/24 10:55:12;;;;;;;1.85;0.60;;;;;;;;;;5055406;28;20033;-70
2024/03/24 10:57:42;;;;;;;1.40;0.50;;;;;;;;;;5055773;28;20725;-69
2024/03/24 11:00:13;;;;;;;0.50;0.50;;;;;;;;;;5035921;28;20173;-70
2024/03/24 11:02:39;;;;;;;3.88;0.68;;;;;;;;;;5035259;28;20032;-72
2024/03/24 11:05:07;;;;;;;2.33;0.73;;;;;;;;;;5035476;28;20021;-69
2024/03/24 11:07:37;;;;;;;0.40;0.30;;;;;;;;;;5035056;28;20547;-71
2024/03/24 11:10:04;;;;;;;0.47;0.47;;;;;;;;;;5052941;28;20792;-72
2024/03/24 11:12:32;;;;;;;0.50;0.50;;;;;;;;;;5035375;28;20580;-69
2024/03/24 11:14:59;;;;;;;1.17;0.70;;;;;;;;;;5035089;28;20062;-69
2024/03/24 11:17:24;;;;;;;1.48;0.68;;;;;;;;;;5035618;28;20029;-67
2024/03/24 11:19:50;;;;;;;0.65;0.50;;;;;;;;;;5052648;28;20472;-69
2024/03/24 11:22:40;;;;;;;5.72;1.20;;;;;;;;;;5035120;28;20766;-69
2024/03/24 11:25:07;;;;;;;1.73;0.63;;;;;;;;;;5035128;28;20033;-69
2024/03/24 11:27:41;;;;;;;2.97;0.82;;;;;;;;;;5034657;28;20448;-68
2024/03/24 11:30:14;;;;;;;0.70;0.50;;;;;;;;;;5034330;28;20024;-70
2024/03/24 11:32:50;;;;;;;3.40;0.68;;;;;;;;;;5034494;28;20017;-69
2024/03/24 11:35:29;;;;;;;0.82;0.77;;;;;;;;;;5034432;28;20512;-68
2024/03/24 11:37:57;;;;;;;0.93;0.85;;;;;;;;;;5034411;28;20112;-68
2024/03/24 11:40:27;;;;;;;3.10;0.80;;;;;;;;;;5034322;28;20017;-69
2024/03/24 11:42:55;;;;;;;1.88;0.70;;;;;;;;;;5052450;28;20076;-69
2024/03/24 11:45:30;;;;;;;1.27;0.70;;;;;;;;;;5034167;28;20029;-69
2024/03/24 11:48:17;;;;;;;2.95;1.15;;;;;;;;;;5034344;28;20029;-68
2024/03/24 11:50:45;;;;;;;1.38;0.90;;;;;;;;;;5034085;28;20025;-71
2024/03/24 11:53:12;;;;;;;2.17;0.80;;;;;;;;;;5034253;28;20079;-69
2024/03/24 11:55:40;;;;;;;2.70;1.25;;;;;;;;;;5033026;28;20029;-71
2024/03/24 11:58:05;;;;;;;2.28;0.82;;;;;;;;;;5017569;28;20111;-69
2024/03/24 12:00:32;;;;;;;2.10;1.05;;;;;;;;;;5033933;28;20116;-69
2024/03/24 12:02:59;;;;;;;2.00;0.90;;;;;;;;;;5033608;28;20080;-71
2024/03/24 12:05:25;;;;;;;2.13;1.15;;;;;;;;;;5017116;28;20024;-70
2024/03/24 12:07:51;;;;;;;2.35;1.23;;;;;;;;;;5033699;28;20025;-70
2024/03/24 12:10:16;;;;;;;2.22;1.40;;;;;;;;;;5033765;28;20029;-69
2024/03/24 12:12:42;;;;;;;3.78;1.23;;;;;;;;;;5033992;28;20341;-70
2024/03/24 12:15:09;;;;;;;1.50;1.10;;;;;;;;;;5051973;28;20128;-73
2024/03/24 12:17:35;;;;;;;1.40;0.80;;;;;;;;;;5033917;28;20511;-69
2024/03/24 12:20:05;;;;;;;1.08;0.95;;;;;;;;;;5033618;28;20056;-68
2024/03/24 12:22:32;;;;;;;0.80;0.80;;;;;;;;;;5033814;28;20570;-70
2024/03/24 12:24:58;;;;;;;0.95;0.85;;;;;;;;;;5033605;28;20029;-69
2024/03/24 12:27:23;;;;;;;1.52;1.20;;;;;;;;;;5051566;28;20028;-70
2024/03/24 12:29:55;;;;;;;1.73;1.10;;;;;;;;;;5033315;28;20136;-70
2024/03/24 12:32:24;;;;;;;1.25;0.85;;;;;;;;;;5033566;28;20462;-68
2024/03/24 12:34:50;;;;;;;1.40;0.90;;;;;;;;;;5033154;28;20091;-69
2024/03/24 12:37:19;;;;;;;1.52;1.10;;;;;;;;;;5051548;28;20033;-70
2024/03/24 12:39:48;;;;;;;1.88;1.27;;;;;;;;;;5051036;28;20108;-71
2024/03/24 12:42:16;;;;;;;1.00;0.90;;;;;;;;;;5051411;28;20028;-71
2024/03/24 12:44:42;;;;;;;1.42;1.05;;;;;;;;;;5033026;28;20040;-70
2024/03/24 12:47:12;;;;;;;2.00;1.27;;;;;;;;;;5033704;28;20218;-69
2024/03/24 12:49:38;;;;;;;3.15;1.30;;;;;;;;;;5051317;28;20039;-70
2024/03/24 12:52:06;;;;;;;2.65;1.08;;;;;;;;;;5033350;28;20195;-70
2024/03/24 12:54:33;;;;;;;2.38;1.45;;;;;;;;;;5051477;28;20083;-70
2024/03/24 12:56:59;;;;;;;2.05;1.30;;;;;;;;;;5033217;28;20040;-69
2024/03/24 12:59:25;;;;;;;3.15;1.20;;;;;;;;;;5051302;28;20021;-69
2024/03/24 13:01:52;;;;;;;2.33;1.27;;;;;;;;;;5033230;28;20122;-69
2024/03/24 13:04:22;;;;;;;1.95;1.10;;;;;;;;;;5033164;28;20037;-69
2024/03/24 13:06:56;;;;;;;1.08;0.98;;;;;;;;;;5049822;28;20036;-68
2024/03/24 13:09:26;;;;;;;1.52;1.08;;;;;;;;;;5050133;28;20140;-69
2024/03/24 13:11:52;;;;;;;2.03;1.00;;;;;;;;;;5032886;28;20195;-69
2024/03/24 13:14:17;;;;;;;2.22;1.75;;;;;;;;;;5050775;28;20117;-70
2024/03/24 13:16:57;;;;;;;1.30;1.17;;;;;;;;;;5032515;28;20036;-69
2024/03/24 13:19:31;;;;;;;2.63;1.55;;;;;;;;;;5050744;28;20024;-70
2024/03/24 13:22:00;;;;;;;2.45;1.98;;;;;;;;;;5032624;28;20032;-69
2024/03/24 13:24:31;;;;;;;1.58;1.20;;;;;;;;;;5033274;28;20040;-68
2024/03/24 13:26:59;;;;;;;6.00;2.10;;;;;;;;;;5050897;28;20474;-70
2024/03/24 13:29:24;;;;;;;3.00;1.40;;;;;;;;;;5032840;28;20036;-70
2024/03/24 13:31:50;;;;;;;1.63;1.48;;;;;;;;;;5032971;28;20032;-69
2024/03/24 13:34:16;;;;;;;5.68;1.40;;;;;;;;;;5033359;28;20388;-70
2024/03/24 13:36:55;;;;;;;2.15;1.35;;;;;;;;;;5033020;28;20037;-71
2024/03/24 13:39:54;;;;;;;1.38;1.20;;;;;;;;;;5033040;28;20040;-70
2024/03/24 13:42:42;;;;;;;3.00;1.80;;;;;;;;;;5033330;28;20855;-70
2024/03/24 13:45:40;;;;;;;2.05;1.20;;;;;;;;;;5033626;28;20428;-71
2024/03/24 13:48:18;;;;;;;4.45;1.30;;;;;;;;;;5051105;28;20111;-73
2024/03/24 13:50:44;;;;;;;3.90;1.42;;;;;;;;;;5032856;28;20025;-71
2024/03/24 13:53:15;;;;;;;1.58;1.20;;;;;;;;;;5032535;28;20028;-68
2024/03/24 13:55:42;;;;;;;3.88;1.67;;;;;;;;;;5032740;28;20025;-71
2024/03/24 13:58:09;;;;;;;3.72;2.15;;;;;;;;;;5032886;28;20477;-68
2024/03/24 14:00:35;;;;;;;1.60;1.30;;;;;;;;;;5033065;28;20051;-72
2024/03/24 14:03:01;;;;;;;2.92;1.52;;;;;;;;;;5033286;28;20021;-69
2024/03/24 14:05:27;;;;;;;2.20;1.83;;;;;;;;;;5050597;28;20075;-72
2024/03/24 14:07:53;;;;;;;1.90;1.55;;;;;;;;;;5050225;28;20028;-71
2024/03/24 14:10:19;;;;;;;1.75;1.38;;;;;;;;;;5049635;28;20037;-69
2024/03/24 14:12:53;;;;;;;2.00;1.70;;;;;;;;;;5032144;28;20094;-70
2024/03/24 14:15:40;;;;;;;3.55;2.00;;;;;;;;;;5032514;28;20021;-68
2024/03/24 14:18:18;;;;;;;5.20;2.38;;;;;;;;;;5032654;28;20075;-70
2024/03/24 14:21:04;;;;;;;3.10;1.42;;;;;;;;;;5019331;28;20025;-71
2024/03/24 14:23:54;;;;;;;4.20;2.00;;;;;;;;;;5035934;28;20083;-68
2024/03/24 14:26:20;;;;;;;2.13;1.92;;;;;;;;;;5036196;28;20029;-70
2024/03/24 14:28:46;;;;;;;3.40;1.30;;;;;;;;;;5020456;28;20025;-69
2024/03/24 14:31:14;;;;;;;4.45;1.80;;;;;;;;;;5036376;28;20102;-68
2024/03/24 14:33:41;;;;;;;2.10;1.50;;;;;;;;;;5054363;28;20029;-70
2024/03/24 14:36:20;;;;;;;2.60;1.58;;;;;;;;;;5054360;28;20032;-71
2024/03/24 14:39:10;;;;;;;1.65;1.20;;;;;;;;;;5035675;28;20013;-69
2024/03/24 14:41:57;;;;;;;2.78;1.85;;;;;;;;;;5035834;28;20029;-71
2024/03/24 14:45:00;;;;;;;4.40;2.83;;;;;;;;;;5053722;28;20096;-71